Wyoming, Ohio
Current Conditions -  °F | °C
As of 6:53 PM on Wednesday 26 Nov 2014 (Local Time) from KHAO Reporting Station
Clear Clear  
Wind Chill: 27°   Ceiling: Unl
Heat Index: 33°   Visibility: 10mi
Dew Point: 26°   Wind: 7mph
Humidity: 75%   Direction: 10°N
Pressure: 30.06"   Gusts: NA
Location:  39.246°N, 84.538°W
Report Text: KHAO 262353Z AUTO 01006KT 10SM CLR 01/M03 A3006 RMK AO2 SLP186 T00061033 10033 21006 55001
Loading
Personal Weather Stations






























Interactive Weather Map New forecast layout! Learn more

10-Day Weather Forecast

Advertisements
Track Severe Weather on mobile